Time;durP1;ratioP1;P1;durP2;ratioP2;P2;SDS_P1;SDS_P2;PMS_P1;PMS_P2;Temp;Humidity;BMP_temperature;BMP_pressure;BME280_temperature;BME280_humidity;BME280_pressure;Samples;Min_cycle;Max_cycle;Signal;HPM_P1;HPM_P2
2023/04/26 00:01:52;;;;;;;0.80;0.80;;;3.80;99.90;;;;;;5095129;28;20279;-68
2023/04/26 00:04:18;;;;;;;0.80;0.80;;;3.70;99.90;;;;;;5104524;28;20215;-68
2023/04/26 00:06:44;;;;;;;0.70;0.70;;;3.60;99.90;;;;;;5097059;28;20219;-68
2023/04/26 00:09:10;;;;;;;0.70;0.70;;;3.50;99.90;;;;;;5115503;28;20654;-68
2023/04/26 00:11:36;;;;;;;0.80;0.80;;;3.50;99.90;;;;;;5115277;28;20196;-68
2023/04/26 00:14:02;;;;;;;0.60;0.60;;;3.30;99.90;;;;;;5115362;28;20249;-68
2023/04/26 00:16:27;;;;;;;0.80;0.80;;;3.30;99.90;;;;;;5113926;28;20213;-68
2023/04/26 00:18:53;;;;;;;0.80;0.80;;;3.20;99.90;;;;;;5115288;28;20562;-68
2023/04/26 00:21:19;;;;;;;0.60;0.60;;;3.20;99.90;;;;;;5115308;28;20225;-68
2023/04/26 00:23:47;;;;;;;0.70;0.70;;;3.10;99.90;;;;;;5115493;28;20216;-68
2023/04/26 00:26:13;;;;;;;0.80;0.80;;;3.10;99.90;;;;;;5113712;28;20203;-68
2023/04/26 00:28:39;;;;;;;0.50;0.50;;;3.10;99.90;;;;;;5114840;28;20558;-68
2023/04/26 00:31:04;;;;;;;0.60;0.60;;;3.10;99.90;;;;;;5115036;28;20292;-68
2023/04/26 00:33:30;;;;;;;0.80;0.80;;;3.20;99.90;;;;;;5114548;28;20199;-69
2023/04/26 00:35:56;;;;;;;0.70;0.70;;;3.20;99.90;;;;;;5114780;28;20687;-68
2023/04/26 00:38:22;;;;;;;0.80;0.80;;;3.20;99.90;;;;;;5114805;28;20200;-68
2023/04/26 00:40:48;;;;;;;0.73;0.73;;;3.20;99.90;;;;;;5114876;28;20278;-68
2023/04/26 00:43:13;;;;;;;0.70;0.70;;;3.10;99.90;;;;;;5114870;28;20692;-68
2023/04/26 00:45:39;;;;;;;0.68;0.68;;;3.10;99.90;;;;;;5114465;28;20202;-68
2023/04/26 00:48:05;;;;;;;0.50;0.50;;;2.90;99.90;;;;;;5114824;28;20190;-68
2023/04/26 00:50:32;;;;;;;0.73;0.73;;;2.80;99.90;;;;;;5114372;28;20192;-68
2023/04/26 00:52:58;;;;;;;0.65;0.65;;;2.70;99.90;;;;;;5114668;28;20702;-68
2023/04/26 00:55:26;;;;;;;0.70;0.70;;;2.70;99.90;;;;;;5114509;28;20183;-68
2023/04/26 00:57:52;;;;;;;0.60;0.60;;;2.70;99.90;;;;;;5114594;28;20187;-68
2023/04/26 01:00:18;;;;;;;0.60;0.60;;;2.70;99.90;;;;;;5114407;28;20200;-69
2023/04/26 01:02:44;;;;;;;0.60;0.60;;;2.60;99.90;;;;;;5175580;22;20283;-81
2023/04/26 01:05:10;;;;;;;0.60;0.60;;;2.50;99.90;;;;;;5035554;28;20229;-80
2023/04/26 01:07:37;;;;;;;0.60;0.60;;;2.40;99.90;;;;;;5053559;28;20656;-81
2023/04/26 01:10:05;;;;;;;0.70;0.70;;;2.40;99.90;;;;;;5019949;28;20194;-80
2023/04/26 01:12:31;;;;;;;0.60;0.60;;;2.40;99.90;;;;;;5033561;28;20190;-80
2023/04/26 01:14:59;;;;;;;0.60;0.60;;;2.30;99.90;;;;;;5016051;28;20225;-81
2023/04/26 01:17:25;;;;;;;0.60;0.60;;;2.30;99.90;;;;;;5015791;28;20541;-81
2023/04/26 01:19:51;;;;;;;0.70;0.70;;;2.30;99.90;;;;;;5033668;28;20566;-81
2023/04/26 01:22:17;;;;;;;0.65;0.65;;;2.40;99.90;;;;;;5015737;28;20206;-80
2023/04/26 01:24:46;;;;;;;0.60;0.60;;;2.40;99.90;;;;;;5033613;28;20551;-80
2023/04/26 01:27:12;;;;;;;0.70;0.70;;;2.40;99.90;;;;;;5015643;28;20613;-81
2023/04/26 01:29:38;;;;;;;0.60;0.60;;;2.30;99.90;;;;;;5015458;28;20205;-81
2023/04/26 01:32:04;;;;;;;0.70;0.70;;;2.30;99.90;;;;;;5027194;28;20703;-80
2023/04/26 01:34:32;;;;;;;0.80;0.80;;;2.30;99.90;;;;;;5053867;28;20193;-81
2023/04/26 01:36:57;;;;;;;0.70;0.70;;;2.40;99.90;;;;;;5054427;28;20276;-81
2023/04/26 01:39:23;;;;;;;0.60;0.60;;;2.50;99.90;;;;;;5054329;28;20228;-80
2023/04/26 01:41:49;;;;;;;0.70;0.70;;;2.50;99.90;;;;;;5036498;28;20198;-80
2023/04/26 01:44:15;;;;;;;0.80;0.80;;;2.40;99.90;;;;;;5036306;28;20202;-81
2023/04/26 01:46:41;;;;;;;0.55;0.55;;;2.40;99.90;;;;;;5036129;28;20220;-81
2023/04/26 01:49:06;;;;;;;0.63;0.63;;;2.40;99.90;;;;;;5053101;28;20239;-81
2023/04/26 01:51:33;;;;;;;0.60;0.60;;;2.50;99.90;;;;;;5034981;28;20197;-81
2023/04/26 01:53:59;;;;;;;0.70;0.70;;;2.30;99.90;;;;;;5052994;28;20197;-81
2023/04/26 01:56:25;;;;;;;0.47;0.47;;;2.20;99.90;;;;;;5034535;28;20571;-81
2023/04/26 01:58:50;;;;;;;0.60;0.60;;;2.20;99.90;;;;;;5035363;28;20236;-80
2023/04/26 02:01:16;;;;;;;0.60;0.60;;;2.20;99.90;;;;;;5034182;28;20197;-81
2023/04/26 02:03:42;;;;;;;0.75;0.75;;;2.30;99.90;;;;;;5052239;28;20256;-80
2023/04/26 02:06:07;;;;;;;0.70;0.70;;;2.30;99.90;;;;;;5052706;28;20540;-80
2023/04/26 02:08:33;;;;;;;0.50;0.50;;;2.30;99.90;;;;;;5037660;28;20201;-80
2023/04/26 02:10:59;;;;;;;0.70;0.70;;;2.30;99.90;;;;;;5054738;28;20660;-80
2023/04/26 02:13:25;;;;;;;0.70;0.70;;;2.30;99.90;;;;;;5072433;28;20197;-81
2023/04/26 02:15:51;;;;;;;0.70;0.70;;;2.20;99.90;;;;;;5072167;28;20188;-81
2023/04/26 02:18:20;;;;;;;0.70;0.70;;;2.10;99.90;;;;;;5054303;28;20288;-81
2023/04/26 02:20:46;;;;;;;0.50;0.50;;;2.20;99.90;;;;;;5032482;28;20285;-81
2023/04/26 02:23:12;;;;;;;0.80;0.80;;;2.10;99.90;;;;;;5014762;28;20300;-81
2023/04/26 02:25:38;;;;;;;0.60;0.60;;;2.10;99.90;;;;;;5014409;28;20202;-81
2023/04/26 02:28:07;;;;;;;0.52;0.52;;;2.10;99.90;;;;;;5014734;28;20202;-81
2023/04/26 02:30:32;;;;;;;0.68;0.68;;;2.10;99.90;;;;;;5032349;28;20201;-81
2023/04/26 02:32:58;;;;;;;0.60;0.60;;;2.10;99.90;;;;;;5051493;28;20576;-81
2023/04/26 02:35:24;;;;;;;0.60;0.60;;;2.00;99.90;;;;;;5030806;28;20198;-81
2023/04/26 02:37:51;;;;;;;0.65;0.65;;;2.00;99.90;;;;;;5032387;28;20198;-82
2023/04/26 02:40:18;;;;;;;0.70;0.70;;;2.00;99.90;;;;;;5030993;28;20544;-81
2023/04/26 02:42:44;;;;;;;0.80;0.80;;;2.00;99.90;;;;;;5032206;28;20201;-81
2023/04/26 02:45:10;;;;;;;0.70;0.70;;;2.00;99.90;;;;;;5014782;28;20649;-81
2023/04/26 02:47:37;;;;;;;0.70;0.70;;;2.00;99.90;;;;;;5032032;28;20296;-81
2023/04/26 02:50:07;;;;;;;0.60;0.60;;;2.00;99.90;;;;;;5030982;28;20205;-81
2023/04/26 02:52:36;;;;;;;0.50;0.50;;;2.00;99.90;;;;;;5030735;28;20236;-81
2023/04/26 02:55:03;;;;;;;0.60;0.60;;;2.10;99.90;;;;;;5031017;28;20194;-80
2023/04/26 02:57:30;;;;;;;0.70;0.70;;;2.10;99.90;;;;;;5030734;28;20542;-81
2023/04/26 02:59:56;;;;;;;0.75;0.75;;;2.10;99.90;;;;;;5032332;28;20190;-81
2023/04/26 03:02:22;;;;;;;0.60;0.60;;;2.00;99.90;;;;;;5032607;28;20240;-81
2023/04/26 03:04:48;;;;;;;0.60;0.60;;;2.10;99.90;;;;;;5033614;28;20197;-81
2023/04/26 03:07:14;;;;;;;0.57;0.57;;;2.10;99.90;;;;;;5034023;28;20209;-81
2023/04/26 03:09:40;;;;;;;0.65;0.65;;;2.10;99.90;;;;;;5051794;28;20587;-81
2023/04/26 03:12:06;;;;;;;0.60;0.60;;;2.00;99.90;;;;;;5052048;28;20185;-81
2023/04/26 03:14:32;;;;;;;0.68;0.68;;;2.00;99.90;;;;;;5033890;28;20580;-81
2023/04/26 03:16:59;;;;;;;0.70;0.70;;;2.00;99.90;;;;;;5023524;28;20252;-81
2023/04/26 03:19:26;;;;;;;0.70;0.70;;;2.00;99.90;;;;;;5015200;28;20579;-81
2023/04/26 03:21:52;;;;;;;0.60;0.60;;;2.00;99.90;;;;;;5033035;28;20194;-81
2023/04/26 03:24:17;;;;;;;0.55;0.55;;;2.00;99.90;;;;;;5023362;28;20232;-81
2023/04/26 03:26:43;;;;;;;0.70;0.70;;;2.00;99.90;;;;;;5052667;28;20198;-81
2023/04/26 03:29:09;;;;;;;0.80;0.80;;;2.00;99.90;;;;;;5038341;28;20219;-80
2023/04/26 03:31:35;;;;;;;0.68;0.68;;;2.00;99.90;;;;;;5038729;28;20209;-80
2023/04/26 03:34:00;;;;;;;0.65;0.65;;;2.00;99.90;;;;;;5055685;28;20193;-81
2023/04/26 03:36:27;;;;;;;0.73;0.73;;;2.10;99.90;;;;;;5033818;28;20283;-81
2023/04/26 03:38:53;;;;;;;0.70;0.70;;;2.10;99.90;;;;;;5017799;28;20743;-80
2023/04/26 03:41:19;;;;;;;0.70;0.70;;;2.10;99.90;;;;;;5034187;28;20285;-81
2023/04/26 03:43:45;;;;;;;0.70;0.70;;;2.10;99.90;;;;;;5035448;28;20194;-81
2023/04/26 03:46:11;;;;;;;0.70;0.70;;;2.20;99.90;;;;;;5035423;28;20205;-81
2023/04/26 03:48:37;;;;;;;0.70;0.70;;;2.10;99.90;;;;;;5035233;28;20194;-80
2023/04/26 03:51:03;;;;;;;0.68;0.68;;;2.10;99.90;;;;;;5034072;28;20233;-81
2023/04/26 03:53:28;;;;;;;0.60;0.60;;;2.10;99.90;;;;;;5035172;28;20197;-81
2023/04/26 03:55:55;;;;;;;0.60;0.60;;;2.10;99.90;;;;;;5035335;28;20194;-84
2023/04/26 03:58:20;;;;;;;0.65;0.65;;;2.10;99.90;;;;;;5033508;28;20228;-80
2023/04/26 04:00:46;;;;;;;0.73;0.73;;;2.10;99.90;;;;;;5036277;28;20660;-80
2023/04/26 04:03:12;;;;;;;0.68;0.68;;;2.10;99.90;;;;;;5036713;28;20245;-80
2023/04/26 04:05:38;;;;;;;0.60;0.60;;;2.10;99.90;;;;;;5054606;28;20718;-80
2023/04/26 04:08:03;;;;;;;0.63;0.63;;;2.10;99.90;;;;;;5054937;28;20193;-82
2023/04/26 04:10:29;;;;;;;0.60;0.60;;;2.10;99.90;;;;;;5054772;28;20714;-81
2023/04/26 04:12:55;;;;;;;0.80;0.80;;;2.20;99.90;;;;;;5036827;28;20217;-81
2023/04/26 04:15:22;;;;;;;0.50;0.50;;;2.10;99.90;;;;;;5036837;28;20585;-81
2023/04/26 04:17:47;;;;;;;0.60;0.60;;;2.10;99.90;;;;;;5036737;28;20729;-81
2023/04/26 04:20:13;;;;;;;0.60;0.60;;;2.20;99.90;;;;;;5036890;28;20235;-81
2023/04/26 04:22:39;;;;;;;0.50;0.50;;;2.20;99.90;;;;;;5036643;28;20205;-80
2023/04/26 04:25:09;;;;;;;0.60;0.60;;;2.20;99.90;;;;;;5036573;28;20193;-80
2023/04/26 04:27:37;;;;;;;0.60;0.60;;;2.20;99.90;;;;;;5036250;28;20213;-80
2023/04/26 04:30:07;;;;;;;0.70;0.70;;;2.20;99.90;;;;;;5054562;28;20196;-80
2023/04/26 04:32:33;;;;;;;0.70;0.70;;;2.10;99.90;;;;;;5054268;28;20196;-81
2023/04/26 04:34:58;;;;;;;0.80;0.80;;;2.20;99.90;;;;;;5033185;28;20200;-81
2023/04/26 04:37:25;;;;;;;0.63;0.63;;;2.20;99.90;;;;;;5032835;28;20198;-80
2023/04/26 04:39:52;;;;;;;0.60;0.60;;;2.20;99.90;;;;;;5032285;28;20680;-81
2023/04/26 04:42:18;;;;;;;0.65;0.65;;;2.30;99.90;;;;;;5033052;28;20657;-81
2023/04/26 04:44:44;;;;;;;0.80;0.80;;;2.30;99.90;;;;;;5034236;28;20202;-80
2023/04/26 04:47:11;;;;;;;0.60;0.60;;;2.40;99.90;;;;;;5016361;28;20238;-80
2023/04/26 04:49:36;;;;;;;0.70;0.70;;;2.40;99.90;;;;;;5032764;28;20194;-81
2023/04/26 04:52:03;;;;;;;0.60;0.60;;;2.40;99.90;;;;;;5034227;28;20212;-80
2023/04/26 04:54:29;;;;;;;0.77;0.77;;;2.50;99.90;;;;;;5016156;28;20225;-81
2023/04/26 04:56:56;;;;;;;0.60;0.60;;;2.60;99.90;;;;;;5034208;28;20228;-84
2023/04/26 04:59:22;;;;;;;0.60;0.60;;;2.60;99.90;;;;;;5053730;28;20246;-81
2023/04/26 05:01:48;;;;;;;0.80;0.80;;;2.70;99.90;;;;;;5053653;28;20205;-81
2023/04/26 05:04:14;;;;;;;0.57;0.57;;;2.70;99.90;;;;;;5053557;28;20221;-80
2023/04/26 05:06:40;;;;;;;0.55;0.55;;;2.80;99.90;;;;;;5035662;28;20217;-80
2023/04/26 05:09:08;;;;;;;0.60;0.60;;;2.80;99.90;;;;;;5053486;28;20200;-81
2023/04/26 05:11:34;;;;;;;0.70;0.70;;;2.80;99.90;;;;;;5035655;28;20297;-80
2023/04/26 05:14:00;;;;;;;0.60;0.60;;;2.80;99.90;;;;;;5035865;28;20670;-81
2023/04/26 05:16:26;;;;;;;0.70;0.70;;;2.90;99.90;;;;;;5053344;28;20688;-81
2023/04/26 05:18:52;;;;;;;0.80;0.80;;;2.90;99.90;;;;;;5053606;28;20225;-81
2023/04/26 05:21:18;;;;;;;0.60;0.60;;;3.00;99.90;;;;;;5038502;28;20197;-80
2023/04/26 05:23:44;;;;;;;0.70;0.70;;;3.00;99.90;;;;;;5053097;28;20267;-80
2023/04/26 05:26:14;;;;;;;0.52;0.52;;;3.00;99.90;;;;;;5053299;28;20518;-81
2023/04/26 05:28:40;;;;;;;0.52;0.52;;;2.90;99.90;;;;;;5035219;28;20567;-81
2023/04/26 05:31:06;;;;;;;0.57;0.57;;;2.90;99.90;;;;;;5053333;28;20193;-81
2023/04/26 05:33:31;;;;;;;0.50;0.50;;;2.90;99.90;;;;;;5053149;28;20631;-80
2023/04/26 05:35:58;;;;;;;0.60;0.60;;;2.90;99.90;;;;;;5031744;28;20614;-80
2023/04/26 05:38:24;;;;;;;0.80;0.80;;;3.00;99.90;;;;;;5031694;28;20265;-81
2023/04/26 05:40:50;;;;;;;0.60;0.60;;;3.00;99.90;;;;;;5045758;28;20664;-81
2023/04/26 05:43:16;;;;;;;0.68;0.68;;;3.00;99.90;;;;;;5054090;28;20198;-81
2023/04/26 05:45:52;;;;;;;0.50;0.50;;;3.10;99.90;;;;;;5054589;28;20208;-81
2023/04/26 05:48:23;;;;;;;0.70;0.70;;;3.00;99.90;;;;;;5036016;28;20211;-81
2023/04/26 05:50:49;;;;;;;0.70;0.70;;;3.10;99.90;;;;;;5054201;28;20197;-81
2023/04/26 05:53:15;;;;;;;0.70;0.70;;;3.30;99.90;;;;;;5052901;28;20189;-81
2023/04/26 05:55:41;;;;;;;0.70;0.70;;;3.30;99.90;;;;;;5054123;28;20193;-81
2023/04/26 05:58:10;;;;;;;0.47;0.47;;;3.40;99.90;;;;;;5053755;28;20584;-81
2023/04/26 06:00:37;;;;;;;0.73;0.73;;;3.30;99.90;;;;;;5052627;28;20204;-81
2023/04/26 06:03:03;;;;;;;0.50;0.50;;;3.40;99.90;;;;;;5053596;28;20692;-80
2023/04/26 06:05:29;;;;;;;0.70;0.70;;;3.30;99.90;;;;;;5043827;28;20190;-81
2023/04/26 06:07:55;;;;;;;0.80;0.80;;;3.20;99.90;;;;;;5014864;28;20699;-80
2023/04/26 06:10:21;;;;;;;0.70;0.70;;;3.20;99.90;;;;;;5014739;28;20198;-80
2023/04/26 06:12:47;;;;;;;0.80;0.80;;;3.30;99.90;;;;;;5015196;28;20248;-80
2023/04/26 06:15:13;;;;;;;0.80;0.80;;;3.40;99.90;;;;;;5032613;28;20213;-81
2023/04/26 06:17:40;;;;;;;0.70;0.70;;;3.30;99.90;;;;;;5032399;28;20203;-81
2023/04/26 06:20:08;;;;;;;0.70;0.70;;;3.30;99.90;;;;;;5038319;28;20254;-81
2023/04/26 06:22:34;;;;;;;0.90;0.90;;;3.20;99.90;;;;;;5052084;28;20276;-81
2023/04/26 06:25:00;;;;;;;0.60;0.60;;;3.20;99.90;;;;;;5051071;28;20217;-81
2023/04/26 06:27:26;;;;;;;0.80;0.80;;;3.40;99.90;;;;;;5050762;28;20259;-81
2023/04/26 06:29:52;;;;;;;0.70;0.70;;;3.50;99.90;;;;;;5051101;28;20263;-81
2023/04/26 06:32:17;;;;;;;0.80;0.80;;;3.50;99.90;;;;;;5050974;28;20687;-81
2023/04/26 06:34:44;;;;;;;0.70;0.70;;;3.50;99.90;;;;;;5050658;28;20334;-80
2023/04/26 06:37:10;;;;;;;0.60;0.60;;;3.50;99.90;;;;;;5052282;28;20189;-81
2023/04/26 06:39:39;;;;;;;0.60;0.60;;;3.50;99.90;;;;;;5034221;28;20232;-81
2023/04/26 06:42:05;;;;;;;0.60;0.60;;;3.50;99.90;;;;;;5034309;28;20237;-81
2023/04/26 06:44:31;;;;;;;0.60;0.60;;;3.30;99.90;;;;;;5034089;28;20229;-81
2023/04/26 06:46:57;;;;;;;0.73;0.73;;;3.50;99.90;;;;;;5052055;28;20201;-81
2023/04/26 06:49:23;;;;;;;0.68;0.68;;;3.40;99.90;;;;;;5034807;28;20194;-81
2023/04/26 06:51:51;;;;;;;0.70;0.70;;;3.50;99.90;;;;;;5033128;28;20699;-81
2023/04/26 06:54:17;;;;;;;0.70;0.70;;;3.50;99.90;;;;;;5015267;28;20194;-81
2023/04/26 06:56:43;;;;;;;0.75;0.75;;;3.50;99.90;;;;;;5015327;28;20284;-80
2023/04/26 06:59:09;;;;;;;0.70;0.70;;;3.50;99.90;;;;;;5015271;28;20218;-81
2023/04/26 07:01:34;;;;;;;0.75;0.75;;;3.50;99.90;;;;;;5031745;28;20700;-80
2023/04/26 07:04:08;;;;;;;0.70;0.70;;;3.60;99.90;;;;;;5034904;28;20312;-81
2023/04/26 07:06:34;;;;;;;0.45;0.45;;;3.60;99.90;;;;;;5035808;28;20588;-81
2023/04/26 07:09:01;;;;;;;0.70;0.70;;;3.60;99.90;;;;;;5043243;28;20225;-81
2023/04/26 07:11:27;;;;;;;0.80;0.80;;;3.80;99.90;;;;;;5037929;28;20189;-81
2023/04/26 07:13:53;;;;;;;0.60;0.60;;;3.70;99.90;;;;;;5055974;28;20256;-81
2023/04/26 07:16:18;;;;;;;0.77;0.77;;;3.80;99.90;;;;;;5038726;28;20327;-81
2023/04/26 07:18:47;;;;;;;0.80;0.80;;;4.00;99.90;;;;;;5038466;28;20672;-81
2023/04/26 07:21:13;;;;;;;0.73;0.73;;;3.90;99.90;;;;;;5038806;28;20703;-81
2023/04/26 07:23:38;;;;;;;0.70;0.70;;;3.90;99.90;;;;;;5038471;28;20205;-81
2023/04/26 07:26:04;;;;;;;0.68;0.68;;;4.00;99.90;;;;;;5056428;28;20285;-81
2023/04/26 07:28:30;;;;;;;0.52;0.52;;;4.20;99.90;;;;;;5055944;28;20197;-80
2023/04/26 07:31:00;;;;;;;0.70;0.70;;;4.20;99.90;;;;;;5055585;28;20216;-80
2023/04/26 07:33:26;;;;;;;0.60;0.60;;;4.30;99.90;;;;;;5055314;28;20278;-81
2023/04/26 07:35:58;;;;;;;0.70;0.70;;;4.50;99.90;;;;;;5034076;28;20281;-81
2023/04/26 07:38:24;;;;;;;0.60;0.60;;;4.40;99.90;;;;;;5035609;28;20205;-82
2023/04/26 07:40:51;;;;;;;0.60;0.60;;;4.30;99.90;;;;;;5017661;28;20194;-82
2023/04/26 07:43:18;;;;;;;0.60;0.60;;;4.30;99.90;;;;;;5017681;28;20202;-81
2023/04/26 07:45:43;;;;;;;0.70;0.70;;;4.20;99.90;;;;;;5036395;28;20248;-81
2023/04/26 07:48:09;;;;;;;0.70;0.70;;;4.10;99.90;;;;;;5037296;28;20652;-81
2023/04/26 07:50:35;;;;;;;0.60;0.60;;;4.10;99.90;;;;;;5055096;28;20194;-82
2023/04/26 07:53:01;;;;;;;0.60;0.60;;;4.00;99.90;;;;;;5055095;28;20219;-81
2023/04/26 07:55:27;;;;;;;0.85;0.85;;;4.10;99.90;;;;;;5055011;28;20351;-81
2023/04/26 07:57:53;;;;;;;0.70;0.70;;;4.20;99.90;;;;;;5029387;28;20206;-81
2023/04/26 08:00:21;;;;;;;0.70;0.70;;;4.20;99.90;;;;;;5035310;28;20198;-81
2023/04/26 08:02:47;;;;;;;0.60;0.60;;;4.10;99.90;;;;;;5016808;28;20230;-82
2023/04/26 08:05:14;;;;;;;0.60;0.60;;;4.10;99.90;;;;;;5035020;28;20198;-82
2023/04/26 08:07:40;;;;;;;0.75;0.75;;;4.00;99.90;;;;;;5016881;28;20221;-82
2023/04/26 08:10:07;;;;;;;0.60;0.60;;;4.10;99.90;;;;;;5035004;28;20297;-82
2023/04/26 08:12:33;;;;;;;0.70;0.70;;;4.20;99.90;;;;;;5039867;28;20209;-81
2023/04/26 08:15:00;;;;;;;0.70;0.70;;;4.40;99.90;;;;;;5036327;28;20205;-81
2023/04/26 08:17:26;;;;;;;0.65;0.65;;;4.50;99.90;;;;;;5036996;28;20198;-82
2023/04/26 08:19:51;;;;;;;0.70;0.70;;;4.80;99.90;;;;;;5037416;28;20613;-82
2023/04/26 08:22:18;;;;;;;0.60;0.60;;;4.60;99.90;;;;;;5055490;28;20667;-82
2023/04/26 08:24:49;;;;;;;0.60;0.60;;;4.50;99.90;;;;;;5037271;28;20361;-82
2023/04/26 08:27:15;;;;;;;0.65;0.65;;;4.60;99.90;;;;;;5055420;28;20704;-82
2023/04/26 08:29:41;;;;;;;0.70;0.70;;;4.80;99.90;;;;;;5054914;28;20198;-81
2023/04/26 08:32:07;;;;;;;0.80;0.80;;;4.90;99.90;;;;;;5054501;28;20202;-81
2023/04/26 08:34:33;;;;;;;0.70;0.70;;;4.70;99.90;;;;;;5052199;28;20193;-82
2023/04/26 08:36:59;;;;;;;0.80;0.80;;;4.60;99.90;;;;;;5034404;28;20202;-82
2023/04/26 08:39:25;;;;;;;0.80;0.80;;;4.70;99.90;;;;;;5034180;28;20722;-83
2023/04/26 08:41:56;;;;;;;0.63;0.63;;;4.70;99.90;;;;;;5016534;28;20198;-82
2023/04/26 08:44:23;;;;;;;0.57;0.57;;;4.90;99.90;;;;;;5034085;28;20194;-82
2023/04/26 08:46:54;;;;;;;0.80;0.80;;;5.00;99.90;;;;;;5016705;28;20214;-83
2023/04/26 08:49:32;;;;;;;0.60;0.60;;;5.10;99.90;;;;;;5034227;28;20193;-81
2023/04/26 08:51:59;;;;;;;0.75;0.75;;;5.10;99.90;;;;;;5016292;28;20198;-82
2023/04/26 08:54:25;;;;;;;0.70;0.70;;;5.40;99.90;;;;;;5025975;28;20194;-82
2023/04/26 08:56:53;;;;;;;0.65;0.65;;;5.30;99.90;;;;;;5053979;28;20268;-82
2023/04/26 08:59:20;;;;;;;0.65;0.65;;;5.40;99.90;;;;;;5053851;28;20602;-82
2023/04/26 09:01:47;;;;;;;0.70;0.70;;;5.10;99.90;;;;;;5053867;28;20617;-82
2023/04/26 09:04:13;;;;;;;0.60;0.60;;;5.00;99.90;;;;;;5053635;28;20306;-81
2023/04/26 09:06:39;;;;;;;0.77;0.77;;;5.00;99.90;;;;;;5053564;28;20209;-82
2023/04/26 09:09:08;;;;;;;0.80;0.80;;;4.90;99.90;;;;;;5036662;28;20610;-83
2023/04/26 09:11:56;;;;;;;2.53;2.15;;;5.00;99.90;;;;;;5054195;28;20263;-82
2023/04/26 09:14:23;;;;;;;0.70;0.70;;;4.90;99.90;;;;;;5054311;28;20297;-82
2023/04/26 09:16:49;;;;;;;0.65;0.65;;;5.00;99.90;;;;;;5036778;28;20224;-82
2023/04/26 09:19:15;;;;;;;0.57;0.57;;;5.10;99.90;;;;;;5036649;28;20300;-82
2023/04/26 09:21:48;;;;;;;0.68;0.68;;;5.00;99.90;;;;;;5054284;28;20280;-81
2023/04/26 09:24:14;;;;;;;0.50;0.50;;;4.80;99.90;;;;;;5036208;28;20228;-81
2023/04/26 09:26:41;;;;;;;0.70;0.70;;;4.90;99.90;;;;;;5035660;28;20341;-82
2023/04/26 09:29:17;;;;;;;0.70;0.70;;;4.90;99.90;;;;;;5036530;28;20200;-82
2023/04/26 09:31:49;;;;;;;0.70;0.70;;;4.90;99.90;;;;;;5054217;28;20255;-82
2023/04/26 09:34:15;;;;;;;0.70;0.70;;;5.00;99.90;;;;;;5036518;28;20206;-82
2023/04/26 09:37:02;;;;;;;1.20;1.10;;;5.00;99.90;;;;;;5031594;28;20205;-81
2023/04/26 09:40:14;;;;;;;;;;;;;;;;;;;;;
2023/04/26 09:42:42;;;;;;;0.80;0.80;;;5.10;99.90;;;;;;5052886;28;20195;-82
2023/04/26 09:45:20;;;;;;;0.55;0.55;;;5.00;99.90;;;;;;5053028;28;20193;-82
2023/04/26 09:47:46;;;;;;;0.65;0.65;;;5.00;99.90;;;;;;5035958;28;20213;-82
2023/04/26 09:50:12;;;;;;;0.80;0.80;;;5.10;99.90;;;;;;5047493;28;20735;-81
2023/04/26 09:52:44;;;;;;;0.70;0.70;;;5.10;99.90;;;;;;5016148;28;20561;-82
2023/04/26 09:55:10;;;;;;;0.65;0.65;;;5.10;99.90;;;;;;5033989;28;20193;-81
2023/04/26 09:57:43;;;;;;;0.70;0.70;;;5.00;99.90;;;;;;5021081;28;20205;-81
2023/04/26 10:00:11;;;;;;;0.70;0.70;;;5.00;99.90;;;;;;5035397;28;20296;-82
2023/04/26 10:02:37;;;;;;;0.65;0.65;;;5.20;99.90;;;;;;5034126;28;20287;-82
2023/04/26 10:05:06;;;;;;;0.75;0.75;;;5.20;99.90;;;;;;5034641;28;20292;-82
2023/04/26 10:07:33;;;;;;;0.55;0.55;;;5.30;99.90;;;;;;5052355;28;20213;-82
2023/04/26 10:10:00;;;;;;;0.60;0.60;;;5.10;99.90;;;;;;5052643;28;20564;-82
2023/04/26 10:12:26;;;;;;;0.70;0.70;;;5.10;99.90;;;;;;5034415;28;20656;-82
2023/04/26 10:14:52;;;;;;;0.70;0.70;;;5.10;99.90;;;;;;5034973;28;20277;-82
2023/04/26 10:17:19;;;;;;;0.60;0.60;;;4.80;99.90;;;;;;5054285;28;20286;-82
2023/04/26 10:19:50;;;;;;;0.70;0.70;;;4.50;99.90;;;;;;5035920;28;20292;-83
2023/04/26 10:22:22;;;;;;;0.70;0.70;;;4.40;99.90;;;;;;5053157;28;20189;-81
2023/04/26 10:24:48;;;;;;;0.70;0.70;;;4.50;99.90;;;;;;5053136;28;20272;-82
2023/04/26 10:27:15;;;;;;;0.50;0.50;;;4.50;99.90;;;;;;5035396;28;20232;-83
2023/04/26 10:29:57;;;;;;;0.70;0.70;;;4.60;99.90;;;;;;5035178;28;20682;-82
2023/04/26 10:32:23;;;;;;;0.70;0.70;;;4.80;99.90;;;;;;5034532;28;20635;-82
2023/04/26 10:35:11;;;;;;;0.70;0.70;;;5.00;99.90;;;;;;5033960;28;20285;-82
2023/04/26 10:37:57;;;;;;;0.80;0.80;;;4.90;99.90;;;;;;5033372;28;20193;-83
2023/04/26 10:40:25;;;;;;;0.60;0.60;;;4.70;99.90;;;;;;5051952;28;20193;-85
2023/04/26 10:43:10;;;;;;;0.70;0.70;;;4.70;99.90;;;;;;5052286;28;20324;-85
2023/04/26 10:45:37;;;;;;;0.70;0.70;;;4.60;99.90;;;;;;5051756;28;20197;-84
2023/04/26 10:48:28;;;;;;;0.70;0.70;;;4.30;99.90;;;;;;5035127;28;20691;-82
2023/04/26 10:51:12;;;;;;;1.00;1.00;;;4.20;99.90;;;;;;5053074;28;20611;-83
2023/04/26 10:53:44;;;;;;;0.60;0.60;;;4.00;99.90;;;;;;5034848;28;20236;-82
2023/04/26 10:56:10;;;;;;;0.60;0.60;;;4.00;99.90;;;;;;5034713;28;20533;-83
2023/04/26 10:58:40;;;;;;;0.60;0.60;;;4.10;99.90;;;;;;5052074;28;20251;-83
2023/04/26 11:01:19;;;;;;;0.70;0.70;;;4.10;99.90;;;;;;5034561;28;20570;-83
2023/04/26 11:03:57;;;;;;;0.70;0.70;;;4.40;99.90;;;;;;5051861;28;20231;-83
2023/04/26 11:06:24;;;;;;;0.70;0.70;;;4.60;99.90;;;;;;5050835;28;20576;-82
2023/04/26 11:08:50;;;;;;;0.70;0.70;;;4.70;99.90;;;;;;5050976;28;20198;-83
2023/04/26 11:11:21;;;;;;;0.80;0.80;;;4.70;99.90;;;;;;5052289;28;20682;-82
2023/04/26 11:13:46;;;;;;;0.70;0.70;;;4.90;99.90;;;;;;5051165;28;20193;-85
2023/04/26 11:16:14;;;;;;;0.60;0.60;;;5.10;99.90;;;;;;5050944;28;20201;-82
2023/04/26 11:18:45;;;;;;;0.60;0.60;;;5.30;99.90;;;;;;5050948;28;20261;-82
2023/04/26 11:21:16;;;;;;;0.60;0.60;;;5.40;99.90;;;;;;5051302;28;20287;-86
2023/04/26 11:23:51;;;;;;;0.70;0.70;;;5.50;99.90;;;;;;5052595;28;20201;-82
2023/04/26 11:26:17;;;;;;;0.60;0.60;;;5.40;99.90;;;;;;5051153;28;20329;-83
2023/04/26 11:28:44;;;;;;;0.63;0.63;;;4.90;99.90;;;;;;5051855;28;20755;-82
2023/04/26 11:31:10;;;;;;;0.80;0.80;;;4.90;99.90;;;;;;5052480;28;20235;-82
2023/04/26 11:33:36;;;;;;;0.80;0.80;;;4.90;99.90;;;;;;5033680;28;20202;-84
2023/04/26 11:36:02;;;;;;;0.80;0.80;;;4.50;99.90;;;;;;5051556;28;20201;-83
2023/04/26 11:38:28;;;;;;;0.70;0.70;;;4.40;99.90;;;;;;5033755;28;20205;-82
2023/04/26 11:41:02;;;;;;;0.60;0.60;;;4.60;99.90;;;;;;5033874;28;20663;-82
2023/04/26 11:43:35;;;;;;;0.70;0.70;;;4.60;99.90;;;;;;5051264;28;20200;-82
2023/04/26 11:46:02;;;;;;;0.60;0.60;;;4.60;99.90;;;;;;5033743;28;20621;-83
2023/04/26 11:48:29;;;;;;;0.57;0.57;;;4.60;99.90;;;;;;5035001;28;20332;-82
2023/04/26 11:50:59;;;;;;;0.63;0.63;;;4.60;99.90;;;;;;5056511;28;20202;-83
2023/04/26 11:53:37;;;;;;;0.60;0.60;;;4.40;99.90;;;;;;5038260;28;20205;-82
2023/04/26 11:56:12;;;;;;;0.50;0.50;;;4.10;99.90;;;;;;5056366;28;20204;-83
2023/04/26 11:58:37;;;;;;;0.60;0.60;;;4.10;99.90;;;;;;5038981;28;20205;-82
2023/04/26 12:01:03;;;;;;;0.65;0.65;;;4.20;99.90;;;;;;5054360;28;20304;-82
2023/04/26 12:03:36;;;;;;;0.52;0.52;;;4.20;99.90;;;;;;5053488;28;20255;-82
2023/04/26 12:06:03;;;;;;;0.70;0.70;;;4.10;99.90;;;;;;5054002;28;20193;-82
2023/04/26 12:08:31;;;;;;;0.70;0.70;;;3.70;99.90;;;;;;5055077;28;20598;-83
2023/04/26 12:11:01;;;;;;;0.68;0.68;;;3.80;99.90;;;;;;5055360;28;20247;-82
2023/04/26 12:13:28;;;;;;;0.70;0.70;;;3.60;99.90;;;;;;5055425;28;20269;-82
2023/04/26 12:15:54;;;;;;;0.73;0.73;;;3.70;99.90;;;;;;5055026;28;20212;-82
2023/04/26 12:18:22;;;;;;;0.63;0.63;;;3.60;99.90;;;;;;5053989;28;20193;-83
2023/04/26 12:20:48;;;;;;;0.68;0.68;;;3.80;99.90;;;;;;5054028;28;20217;-83
2023/04/26 12:23:15;;;;;;;0.55;0.55;;;3.90;99.90;;;;;;5053957;28;20197;-82
2023/04/26 12:25:56;;;;;;;0.60;0.60;;;3.90;99.90;;;;;;5054984;28;20189;-83
2023/04/26 12:28:23;;;;;;;0.60;0.60;;;4.00;99.90;;;;;;5044405;28;20201;-83
2023/04/26 12:30:50;;;;;;;0.60;0.60;;;4.20;99.90;;;;;;5037556;28;20292;-83
2023/04/26 12:33:18;;;;;;;0.70;0.70;;;4.30;99.90;;;;;;5037274;28;20279;-83
2023/04/26 12:35:45;;;;;;;0.68;0.68;;;4.60;99.90;;;;;;5055022;28;20206;-83
2023/04/26 12:38:11;;;;;;;0.60;0.60;;;4.70;99.90;;;;;;5054937;28;20201;-83
2023/04/26 12:40:37;;;;;;;0.60;0.60;;;4.90;99.90;;;;;;5017675;28;20640;-82
2023/04/26 12:43:06;;;;;;;0.60;0.60;;;5.00;99.90;;;;;;5035711;28;20194;-83
2023/04/26 12:45:32;;;;;;;0.60;0.60;;;5.00;99.90;;;;;;5018006;28;20745;-82
2023/04/26 12:47:58;;;;;;;0.73;0.73;;;4.80;99.90;;;;;;5017373;28;20293;-83
2023/04/26 12:50:24;;;;;;;0.60;0.60;;;4.80;99.90;;;;;;5017355;28;20194;-83
2023/04/26 12:52:49;;;;;;;0.60;0.60;;;4.90;99.90;;;;;;5035256;28;20206;-83
2023/04/26 12:55:15;;;;;;;0.70;0.70;;;5.10;99.90;;;;;;5038950;28;20197;-82
2023/04/26 12:57:43;;;;;;;0.60;0.60;;;4.90;99.90;;;;;;5053600;28;20292;-83
2023/04/26 13:00:14;;;;;;;0.60;0.60;;;4.80;99.90;;;;;;5053289;28;20198;-84